sensor_id;sensor_type;location;lat;lon;timestamp;P1;durP1;ratioP1;P2;durP2;ratioP2
68212;SDS011;55035;47.792;8.724;2023-10-19T00:01:47;29.85;;;14.88;;
68212;SDS011;55035;47.792;8.724;2023-10-19T00:04:15;26.90;;;14.90;;
68212;SDS011;55035;47.792;8.724;2023-10-19T00:06:42;27.17;;;14.80;;
68212;SDS011;55035;47.792;8.724;2023-10-19T00:09:10;26.13;;;14.38;;
68212;SDS011;55035;47.792;8.724;2023-10-19T00:11:36;26.90;;;14.80;;
68212;SDS011;55035;47.792;8.724;2023-10-19T00:14:06;26.17;;;14.45;;
68212;SDS011;55035;47.792;8.724;2023-10-19T00:16:41;26.35;;;14.50;;
68212;SDS011;55035;47.792;8.724;2023-10-19T00:19:10;26.20;;;14.40;;
68212;SDS011;55035;47.792;8.724;2023-10-19T00:21:37;24.75;;;14.40;;
68212;SDS011;55035;47.792;8.724;2023-10-19T00:24:16;25.75;;;14.27;;
68212;SDS011;55035;47.792;8.724;2023-10-19T00:26:43;25.02;;;14.57;;
68212;SDS011;55035;47.792;8.724;2023-10-19T00:29:10;26.38;;;14.23;;
68212;SDS011;55035;47.792;8.724;2023-10-19T00:31:56;25.08;;;14.23;;
68212;SDS011;55035;47.792;8.724;2023-10-19T00:34:24;26.17;;;14.35;;
68212;SDS011;55035;47.792;8.724;2023-10-19T00:36:53;25.20;;;13.87;;
68212;SDS011;55035;47.792;8.724;2023-10-19T00:39:21;25.93;;;14.20;;
68212;SDS011;55035;47.792;8.724;2023-10-19T00:41:49;27.90;;;14.63;;
68212;SDS011;55035;47.792;8.724;2023-10-19T00:44:17;29.27;;;15.80;;
68212;SDS011;55035;47.792;8.724;2023-10-19T00:46:48;28.67;;;15.00;;
68212;SDS011;55035;47.792;8.724;2023-10-19T00:49:26;28.08;;;15.10;;
68212;SDS011;55035;47.792;8.724;2023-10-19T00:51:55;29.42;;;16.15;;
68212;SDS011;55035;47.792;8.724;2023-10-19T00:54:29;28.17;;;15.07;;
68212;SDS011;55035;47.792;8.724;2023-10-19T00:56:59;29.38;;;15.50;;
68212;SDS011;55035;47.792;8.724;2023-10-19T00:59:30;29.17;;;15.45;;
68212;SDS011;55035;47.792;8.724;2023-10-19T01:02:00;30.27;;;15.87;;
68212;SDS011;55035;47.792;8.724;2023-10-19T01:04:42;27.30;;;15.30;;
68212;SDS011;55035;47.792;8.724;2023-10-19T01:07:11;28.35;;;15.40;;
68212;SDS011;55035;47.792;8.724;2023-10-19T01:09:41;29.60;;;15.88;;
68212;SDS011;55035;47.792;8.724;2023-10-19T01:12:09;29.45;;;15.23;;
68212;SDS011;55035;47.792;8.724;2023-10-19T01:15:00;28.05;;;15.10;;
68212;SDS011;55035;47.792;8.724;2023-10-19T01:17:28;29.05;;;15.05;;
68212;SDS011;55035;47.792;8.724;2023-10-19T01:19:56;42.33;;;22.53;;
68212;SDS011;55035;47.792;8.724;2023-10-19T01:22:26;26.67;;;15.10;;
68212;SDS011;55035;47.792;8.724;2023-10-19T01:24:54;27.60;;;14.70;;
68212;SDS011;55035;47.792;8.724;2023-10-19T01:27:24;27.58;;;14.20;;
68212;SDS011;55035;47.792;8.724;2023-10-19T01:29:50;25.23;;;14.00;;
68212;SDS011;55035;47.792;8.724;2023-10-19T01:32:28;24.55;;;14.10;;
68212;SDS011;55035;47.792;8.724;2023-10-19T01:34:55;26.58;;;14.18;;
68212;SDS011;55035;47.792;8.724;2023-10-19T01:37:22;26.02;;;14.43;;
68212;SDS011;55035;47.792;8.724;2023-10-19T01:39:48;25.63;;;14.70;;
68212;SDS011;55035;47.792;8.724;2023-10-19T01:42:16;25.85;;;14.77;;
68212;SDS011;55035;47.792;8.724;2023-10-19T01:44:44;26.75;;;14.30;;
68212;SDS011;55035;47.792;8.724;2023-10-19T01:47:10;26.50;;;14.50;;
68212;SDS011;55035;47.792;8.724;2023-10-19T01:49:37;25.02;;;14.45;;
68212;SDS011;55035;47.792;8.724;2023-10-19T01:52:03;26.73;;;14.03;;
68212;SDS011;55035;47.792;8.724;2023-10-19T01:54:30;26.38;;;13.90;;
68212;SDS011;55035;47.792;8.724;2023-10-19T01:56:56;27.10;;;14.60;;
68212;SDS011;55035;47.792;8.724;2023-10-19T01:59:26;28.58;;;15.30;;
68212;SDS011;55035;47.792;8.724;2023-10-19T02:01:53;25.90;;;14.68;;
68212;SDS011;55035;47.792;8.724;2023-10-19T02:04:21;29.67;;;15.32;;
68212;SDS011;55035;47.792;8.724;2023-10-19T02:06:47;29.00;;;15.40;;
68212;SDS011;55035;47.792;8.724;2023-10-19T02:09:17;29.13;;;15.20;;
68212;SDS011;55035;47.792;8.724;2023-10-19T02:11:44;29.45;;;15.95;;
68212;SDS011;55035;47.792;8.724;2023-10-19T02:14:12;33.13;;;16.80;;
68212;SDS011;55035;47.792;8.724;2023-10-19T02:16:42;33.10;;;16.93;;
68212;SDS011;55035;47.792;8.724;2023-10-19T02:19:11;31.25;;;16.52;;
68212;SDS011;55035;47.792;8.724;2023-10-19T02:21:36;32.53;;;16.77;;
68212;SDS011;55035;47.792;8.724;2023-10-19T02:24:06;32.70;;;16.90;;
68212;SDS011;55035;47.792;8.724;2023-10-19T02:26:33;31.47;;;16.70;;
68212;SDS011;55035;47.792;8.724;2023-10-19T02:28:59;32.40;;;16.75;;
68212;SDS011;55035;47.792;8.724;2023-10-19T02:31:25;30.50;;;16.45;;
68212;SDS011;55035;47.792;8.724;2023-10-19T02:33:54;29.17;;;15.68;;
68212;SDS011;55035;47.792;8.724;2023-10-19T02:36:25;30.25;;;16.13;;
68212;SDS011;55035;47.792;8.724;2023-10-19T02:38:54;30.13;;;15.77;;
68212;SDS011;55035;47.792;8.724;2023-10-19T02:41:24;28.38;;;15.43;;
68212;SDS011;55035;47.792;8.724;2023-10-19T02:43:50;27.20;;;14.98;;
68212;SDS011;55035;47.792;8.724;2023-10-19T02:46:27;29.10;;;15.82;;
68212;SDS011;55035;47.792;8.724;2023-10-19T02:48:55;27.65;;;15.38;;
68212;SDS011;55035;47.792;8.724;2023-10-19T02:51:21;28.58;;;15.02;;
68212;SDS011;55035;47.792;8.724;2023-10-19T02:53:48;25.83;;;14.38;;
68212;SDS011;55035;47.792;8.724;2023-10-19T02:56:14;27.63;;;15.13;;
68212;SDS011;55035;47.792;8.724;2023-10-19T02:58:43;27.57;;;14.50;;
68212;SDS011;55035;47.792;8.724;2023-10-19T03:01:12;28.77;;;15.50;;
68212;SDS011;55035;47.792;8.724;2023-10-19T03:03:42;27.70;;;14.63;;
68212;SDS011;55035;47.792;8.724;2023-10-19T03:06:13;28.45;;;15.27;;
68212;SDS011;55035;47.792;8.724;2023-10-19T03:08:38;28.17;;;14.73;;
68212;SDS011;55035;47.792;8.724;2023-10-19T03:11:06;29.05;;;15.68;;
68212;SDS011;55035;47.792;8.724;2023-10-19T03:13:32;28.95;;;15.23;;
68212;SDS011;55035;47.792;8.724;2023-10-19T03:15:59;30.33;;;16.25;;
68212;SDS011;55035;47.792;8.724;2023-10-19T03:18:26;30.05;;;16.08;;
68212;SDS011;55035;47.792;8.724;2023-10-19T03:20:54;30.00;;;15.75;;
68212;SDS011;55035;47.792;8.724;2023-10-19T03:23:21;31.48;;;16.20;;
68212;SDS011;55035;47.792;8.724;2023-10-19T03:25:53;30.73;;;16.27;;
68212;SDS011;55035;47.792;8.724;2023-10-19T03:28:40;33.08;;;17.27;;
68212;SDS011;55035;47.792;8.724;2023-10-19T03:31:08;35.13;;;18.55;;
68212;SDS011;55035;47.792;8.724;2023-10-19T03:33:34;32.85;;;17.30;;
68212;SDS011;55035;47.792;8.724;2023-10-19T03:36:02;30.98;;;17.20;;
68212;SDS011;55035;47.792;8.724;2023-10-19T03:38:32;30.85;;;16.27;;
68212;SDS011;55035;47.792;8.724;2023-10-19T03:41:03;28.67;;;15.77;;
68212;SDS011;55035;47.792;8.724;2023-10-19T03:43:34;29.35;;;16.13;;
68212;SDS011;55035;47.792;8.724;2023-10-19T03:46:02;29.13;;;15.63;;
68212;SDS011;55035;47.792;8.724;2023-10-19T03:48:35;26.80;;;15.50;;
68212;SDS011;55035;47.792;8.724;2023-10-19T03:51:03;28.30;;;15.52;;
68212;SDS011;55035;47.792;8.724;2023-10-19T03:53:33;25.90;;;14.93;;
68212;SDS011;55035;47.792;8.724;2023-10-19T03:56:04;27.45;;;14.95;;
68212;SDS011;55035;47.792;8.724;2023-10-19T03:58:37;26.77;;;15.57;;
68212;SDS011;55035;47.792;8.724;2023-10-19T04:01:06;28.65;;;15.23;;
68212;SDS011;55035;47.792;8.724;2023-10-19T04:03:33;27.55;;;15.40;;
68212;SDS011;55035;47.792;8.724;2023-10-19T04:06:02;25.93;;;14.80;;
68212;SDS011;55035;47.792;8.724;2023-10-19T04:08:30;27.53;;;15.23;;
68212;SDS011;55035;47.792;8.724;2023-10-19T04:11:04;28.55;;;15.60;;
68212;SDS011;55035;47.792;8.724;2023-10-19T04:13:47;30.02;;;16.10;;
68212;SDS011;55035;47.792;8.724;2023-10-19T04:16:18;29.53;;;15.80;;
68212;SDS011;55035;47.792;8.724;2023-10-19T04:18:45;29.42;;;15.60;;
68212;SDS011;55035;47.792;8.724;2023-10-19T04:21:14;27.65;;;15.55;;
68212;SDS011;55035;47.792;8.724;2023-10-19T04:23:41;28.33;;;15.43;;
68212;SDS011;55035;47.792;8.724;2023-10-19T04:26:09;26.47;;;15.03;;
68212;SDS011;55035;47.792;8.724;2023-10-19T04:28:40;25.40;;;14.68;;
68212;SDS011;55035;47.792;8.724;2023-10-19T04:31:15;25.00;;;14.20;;
68212;SDS011;55035;47.792;8.724;2023-10-19T04:33:42;26.50;;;14.88;;
68212;SDS011;55035;47.792;8.724;2023-10-19T04:36:11;25.08;;;14.60;;
68212;SDS011;55035;47.792;8.724;2023-10-19T04:38:38;27.48;;;14.77;;
68212;SDS011;55035;47.792;8.724;2023-10-19T04:41:06;25.47;;;14.37;;
68212;SDS011;55035;47.792;8.724;2023-10-19T04:43:37;26.15;;;14.82;;
68212;SDS011;55035;47.792;8.724;2023-10-19T04:46:05;25.60;;;14.20;;
68212;SDS011;55035;47.792;8.724;2023-10-19T04:48:34;26.52;;;14.68;;
68212;SDS011;55035;47.792;8.724;2023-10-19T04:51:02;25.67;;;14.90;;
68212;SDS011;55035;47.792;8.724;2023-10-19T04:53:30;25.67;;;14.40;;
68212;SDS011;55035;47.792;8.724;2023-10-19T04:55:57;25.02;;;13.85;;
68212;SDS011;55035;47.792;8.724;2023-10-19T04:58:25;26.13;;;14.30;;
68212;SDS011;55035;47.792;8.724;2023-10-19T05:00:54;25.50;;;14.10;;
68212;SDS011;55035;47.792;8.724;2023-10-19T05:03:21;24.95;;;14.23;;
68212;SDS011;55035;47.792;8.724;2023-10-19T05:05:49;25.67;;;14.77;;
68212;SDS011;55035;47.792;8.724;2023-10-19T05:08:16;25.42;;;14.60;;
68212;SDS011;55035;47.792;8.724;2023-10-19T05:10:43;28.63;;;15.85;;
68212;SDS011;55035;47.792;8.724;2023-10-19T05:13:10;29.40;;;17.27;;
68212;SDS011;55035;47.792;8.724;2023-10-19T05:15:37;32.55;;;17.42;;
68212;SDS011;55035;47.792;8.724;2023-10-19T05:18:06;31.20;;;17.75;;
68212;SDS011;55035;47.792;8.724;2023-10-19T05:20:32;31.75;;;17.23;;
68212;SDS011;55035;47.792;8.724;2023-10-19T05:22:59;29.48;;;17.30;;
68212;SDS011;55035;47.792;8.724;2023-10-19T05:25:26;31.27;;;17.87;;
68212;SDS011;55035;47.792;8.724;2023-10-19T05:27:53;30.63;;;17.25;;
68212;SDS011;55035;47.792;8.724;2023-10-19T05:30:20;30.00;;;17.20;;
68212;SDS011;55035;47.792;8.724;2023-10-19T05:32:48;31.33;;;17.35;;
68212;SDS011;55035;47.792;8.724;2023-10-19T05:35:16;29.65;;;16.95;;
68212;SDS011;55035;47.792;8.724;2023-10-19T05:37:48;31.02;;;16.98;;
68212;SDS011;55035;47.792;8.724;2023-10-19T05:40:16;30.08;;;16.70;;
68212;SDS011;55035;47.792;8.724;2023-10-19T05:42:44;29.48;;;16.20;;
68212;SDS011;55035;47.792;8.724;2023-10-19T05:45:12;31.40;;;16.92;;
68212;SDS011;55035;47.792;8.724;2023-10-19T05:47:44;30.95;;;16.92;;
68212;SDS011;55035;47.792;8.724;2023-10-19T05:50:11;31.63;;;17.20;;
68212;SDS011;55035;47.792;8.724;2023-10-19T05:52:41;31.13;;;17.10;;
68212;SDS011;55035;47.792;8.724;2023-10-19T05:55:08;32.33;;;17.60;;
68212;SDS011;55035;47.792;8.724;2023-10-19T05:57:36;32.05;;;18.02;;
68212;SDS011;55035;47.792;8.724;2023-10-19T06:00:07;31.55;;;17.10;;
68212;SDS011;55035;47.792;8.724;2023-10-19T06:02:42;31.08;;;17.33;;
68212;SDS011;55035;47.792;8.724;2023-10-19T06:05:10;31.07;;;17.27;;
68212;SDS011;55035;47.792;8.724;2023-10-19T06:07:37;30.70;;;16.73;;
68212;SDS011;55035;47.792;8.724;2023-10-19T06:10:06;29.35;;;16.90;;
68212;SDS011;55035;47.792;8.724;2023-10-19T06:12:33;30.10;;;16.67;;
68212;SDS011;55035;47.792;8.724;2023-10-19T06:15:03;30.65;;;16.90;;
68212;SDS011;55035;47.792;8.724;2023-10-19T06:17:30;29.92;;;16.52;;
68212;SDS011;55035;47.792;8.724;2023-10-19T06:19:57;29.50;;;16.13;;
68212;SDS011;55035;47.792;8.724;2023-10-19T06:22:24;29.83;;;16.10;;
68212;SDS011;55035;47.792;8.724;2023-10-19T06:24:53;28.55;;;16.27;;
68212;SDS011;55035;47.792;8.724;2023-10-19T06:27:22;28.93;;;16.00;;
68212;SDS011;55035;47.792;8.724;2023-10-19T06:29:49;29.37;;;16.43;;
68212;SDS011;55035;47.792;8.724;2023-10-19T06:32:16;29.20;;;16.42;;
68212;SDS011;55035;47.792;8.724;2023-10-19T06:34:44;29.00;;;16.20;;
68212;SDS011;55035;47.792;8.724;2023-10-19T06:37:11;28.90;;;16.55;;
68212;SDS011;55035;47.792;8.724;2023-10-19T06:39:37;29.17;;;16.52;;
68212;SDS011;55035;47.792;8.724;2023-10-19T06:42:07;27.67;;;16.05;;
68212;SDS011;55035;47.792;8.724;2023-10-19T06:44:41;29.27;;;16.10;;
68212;SDS011;55035;47.792;8.724;2023-10-19T06:47:09;27.92;;;16.02;;
68212;SDS011;55035;47.792;8.724;2023-10-19T06:49:37;30.05;;;16.55;;
68212;SDS011;55035;47.792;8.724;2023-10-19T06:52:05;29.52;;;16.48;;
68212;SDS011;55035;47.792;8.724;2023-10-19T06:54:31;30.43;;;16.80;;
68212;SDS011;55035;47.792;8.724;2023-10-19T06:56:59;28.27;;;16.45;;
68212;SDS011;55035;47.792;8.724;2023-10-19T06:59:28;26.73;;;16.13;;
68212;SDS011;55035;47.792;8.724;2023-10-19T07:01:59;28.25;;;16.02;;
68212;SDS011;55035;47.792;8.724;2023-10-19T07:04:28;26.08;;;15.32;;
68212;SDS011;55035;47.792;8.724;2023-10-19T07:06:56;26.42;;;15.73;;
68212;SDS011;55035;47.792;8.724;2023-10-19T07:09:23;29.33;;;16.35;;
68212;SDS011;55035;47.792;8.724;2023-10-19T07:11:50;28.33;;;15.95;;
68212;SDS011;55035;47.792;8.724;2023-10-19T07:14:20;27.58;;;15.68;;
68212;SDS011;55035;47.792;8.724;2023-10-19T07:16:48;28.75;;;16.33;;
68212;SDS011;55035;47.792;8.724;2023-10-19T07:19:17;27.50;;;16.23;;
68212;SDS011;55035;47.792;8.724;2023-10-19T07:21:44;27.30;;;16.50;;
68212;SDS011;55035;47.792;8.724;2023-10-19T07:24:14;31.27;;;18.07;;
68212;SDS011;55035;47.792;8.724;2023-10-19T07:26:44;36.08;;;19.70;;
68212;SDS011;55035;47.792;8.724;2023-10-19T07:29:19;31.80;;;18.13;;
68212;SDS011;55035;47.792;8.724;2023-10-19T07:31:46;31.03;;;17.87;;
68212;SDS011;55035;47.792;8.724;2023-10-19T07:34:14;29.85;;;17.65;;
68212;SDS011;55035;47.792;8.724;2023-10-19T07:36:43;28.73;;;16.98;;
68212;SDS011;55035;47.792;8.724;2023-10-19T07:39:09;29.60;;;17.75;;
68212;SDS011;55035;47.792;8.724;2023-10-19T07:41:44;29.88;;;17.77;;
68212;SDS011;55035;47.792;8.724;2023-10-19T07:44:11;32.45;;;19.02;;
68212;SDS011;55035;47.792;8.724;2023-10-19T07:46:38;27.00;;;16.15;;
68212;SDS011;55035;47.792;8.724;2023-10-19T07:49:05;30.58;;;17.38;;
68212;SDS011;55035;47.792;8.724;2023-10-19T07:51:32;29.63;;;17.63;;
68212;SDS011;55035;47.792;8.724;2023-10-19T07:54:01;31.52;;;17.88;;
68212;SDS011;55035;47.792;8.724;2023-10-19T07:56:27;33.75;;;19.33;;
68212;SDS011;55035;47.792;8.724;2023-10-19T07:58:55;31.67;;;18.35;;
68212;SDS011;55035;47.792;8.724;2023-10-19T08:01:22;41.30;;;23.10;;
68212;SDS011;55035;47.792;8.724;2023-10-19T08:03:49;29.40;;;17.03;;
68212;SDS011;55035;47.792;8.724;2023-10-19T08:06:18;29.10;;;15.87;;
68212;SDS011;55035;47.792;8.724;2023-10-19T08:08:45;30.38;;;17.60;;
68212;SDS011;55035;47.792;8.724;2023-10-19T08:11:14;27.42;;;15.77;;
68212;SDS011;55035;47.792;8.724;2023-10-19T08:13:41;28.83;;;15.90;;
68212;SDS011;55035;47.792;8.724;2023-10-19T08:16:08;27.35;;;15.73;;
68212;SDS011;55035;47.792;8.724;2023-10-19T08:18:35;29.48;;;17.02;;
68212;SDS011;55035;47.792;8.724;2023-10-19T08:21:02;28.08;;;16.15;;
68212;SDS011;55035;47.792;8.724;2023-10-19T08:23:28;27.65;;;15.80;;
68212;SDS011;55035;47.792;8.724;2023-10-19T08:25:57;26.48;;;15.52;;
68212;SDS011;55035;47.792;8.724;2023-10-19T08:28:27;27.08;;;15.98;;
68212;SDS011;55035;47.792;8.724;2023-10-19T08:30:54;26.23;;;15.70;;
68212;SDS011;55035;47.792;8.724;2023-10-19T08:33:26;26.70;;;15.48;;
68212;SDS011;55035;47.792;8.724;2023-10-19T08:35:53;26.05;;;15.48;;
68212;SDS011;55035;47.792;8.724;2023-10-19T08:38:20;28.35;;;16.23;;
68212;SDS011;55035;47.792;8.724;2023-10-19T08:40:47;27.70;;;15.93;;
68212;SDS011;55035;47.792;8.724;2023-10-19T08:43:14;26.45;;;15.82;;
68212;SDS011;55035;47.792;8.724;2023-10-19T08:45:45;26.42;;;15.85;;
68212;SDS011;55035;47.792;8.724;2023-10-19T08:48:12;25.55;;;15.20;;
68212;SDS011;55035;47.792;8.724;2023-10-19T08:50:39;26.73;;;15.27;;
68212;SDS011;55035;47.792;8.724;2023-10-19T08:53:07;25.33;;;14.95;;
68212;SDS011;55035;47.792;8.724;2023-10-19T08:55:35;24.73;;;14.63;;
68212;SDS011;55035;47.792;8.724;2023-10-19T08:58:03;23.77;;;14.55;;
68212;SDS011;55035;47.792;8.724;2023-10-19T09:00:42;25.20;;;14.95;;
68212;SDS011;55035;47.792;8.724;2023-10-19T09:03:11;24.90;;;15.13;;
68212;SDS011;55035;47.792;8.724;2023-10-19T09:05:39;35.80;;;20.00;;
68212;SDS011;55035;47.792;8.724;2023-10-19T09:08:07;41.50;;;23.83;;
68212;SDS011;55035;47.792;8.724;2023-10-19T09:10:35;23.73;;;14.50;;
68212;SDS011;55035;47.792;8.724;2023-10-19T09:13:03;27.20;;;16.53;;
68212;SDS011;55035;47.792;8.724;2023-10-19T09:15:30;25.40;;;15.32;;
68212;SDS011;55035;47.792;8.724;2023-10-19T09:18:01;24.97;;;14.60;;
68212;SDS011;55035;47.792;8.724;2023-10-19T09:20:41;25.67;;;15.57;;
68212;SDS011;55035;47.792;8.724;2023-10-19T09:23:13;25.77;;;15.67;;
68212;SDS011;55035;47.792;8.724;2023-10-19T09:25:40;26.83;;;15.88;;
68212;SDS011;55035;47.792;8.724;2023-10-19T09:28:07;27.30;;;16.20;;
68212;SDS011;55035;47.792;8.724;2023-10-19T09:30:36;27.67;;;16.08;;
68212;SDS011;55035;47.792;8.724;2023-10-19T09:33:04;28.15;;;16.20;;
68212;SDS011;55035;47.792;8.724;2023-10-19T09:35:32;28.27;;;16.60;;
68212;SDS011;55035;47.792;8.724;2023-10-19T09:38:04;29.65;;;17.58;;
68212;SDS011;55035;47.792;8.724;2023-10-19T09:40:32;29.38;;;18.20;;
68212;SDS011;55035;47.792;8.724;2023-10-19T09:43:00;29.87;;;18.47;;
68212;SDS011;55035;47.792;8.724;2023-10-19T09:45:34;32.13;;;18.67;;
68212;SDS011;55035;47.792;8.724;2023-10-19T09:48:05;33.15;;;17.98;;
68212;SDS011;55035;47.792;8.724;2023-10-19T09:50:33;30.07;;;18.20;;
68212;SDS011;55035;47.792;8.724;2023-10-19T09:53:01;28.95;;;17.92;;
68212;SDS011;55035;47.792;8.724;2023-10-19T09:55:32;30.25;;;17.83;;
68212;SDS011;55035;47.792;8.724;2023-10-19T09:58:05;30.00;;;17.67;;
68212;SDS011;55035;47.792;8.724;2023-10-19T10:00:34;28.55;;;17.48;;
68212;SDS011;55035;47.792;8.724;2023-10-19T10:03:01;28.07;;;16.90;;
68212;SDS011;55035;47.792;8.724;2023-10-19T10:08:32;27.38;;;16.33;;
68212;SDS011;55035;47.792;8.724;2023-10-19T10:11:13;26.48;;;16.00;;
68212;SDS011;55035;47.792;8.724;2023-10-19T10:13:42;25.85;;;15.80;;
68212;SDS011;55035;47.792;8.724;2023-10-19T10:16:11;29.75;;;18.60;;
68212;SDS011;55035;47.792;8.724;2023-10-19T10:18:43;25.73;;;15.15;;
68212;SDS011;55035;47.792;8.724;2023-10-19T10:21:14;28.00;;;17.00;;
68212;SDS011;55035;47.792;8.724;2023-10-19T10:23:49;27.75;;;16.63;;
68212;SDS011;55035;47.792;8.724;2023-10-19T10:26:20;23.17;;;14.00;;
68212;SDS011;55035;47.792;8.724;2023-10-19T10:31:33;20.90;;;13.85;;
68212;SDS011;55035;47.792;8.724;2023-10-19T10:34:02;20.90;;;13.98;;
68212;SDS011;55035;47.792;8.724;2023-10-19T10:36:29;21.40;;;13.75;;
68212;SDS011;55035;47.792;8.724;2023-10-19T10:39:16;21.63;;;13.38;;
68212;SDS011;55035;47.792;8.724;2023-10-19T10:41:56;21.07;;;13.50;;
68212;SDS011;55035;47.792;8.724;2023-10-19T10:44:39;20.90;;;13.82;;
68212;SDS011;55035;47.792;8.724;2023-10-19T10:47:07;19.95;;;13.20;;
68212;SDS011;55035;47.792;8.724;2023-10-19T10:49:48;21.35;;;13.93;;
68212;SDS011;55035;47.792;8.724;2023-10-19T10:52:25;20.92;;;13.70;;
68212;SDS011;55035;47.792;8.724;2023-10-19T10:54:52;23.00;;;14.27;;
68212;SDS011;55035;47.792;8.724;2023-10-19T10:57:20;21.17;;;13.37;;
68212;SDS011;55035;47.792;8.724;2023-10-19T11:00:00;21.73;;;14.52;;
68212;SDS011;55035;47.792;8.724;2023-10-19T11:02:27;20.52;;;12.93;;
68212;SDS011;55035;47.792;8.724;2023-10-19T11:04:54;20.13;;;13.00;;
68212;SDS011;55035;47.792;8.724;2023-10-19T11:07:23;19.63;;;12.00;;
68212;SDS011;55035;47.792;8.724;2023-10-19T11:09:53;16.73;;;11.23;;
68212;SDS011;55035;47.792;8.724;2023-10-19T11:12:24;15.32;;;10.23;;
68212;SDS011;55035;47.792;8.724;2023-10-19T11:14:53;14.60;;;9.83;;
68212;SDS011;55035;47.792;8.724;2023-10-19T11:17:25;14.10;;;9.50;;
68212;SDS011;55035;47.792;8.724;2023-10-19T11:19:56;13.95;;;9.63;;
68212;SDS011;55035;47.792;8.724;2023-10-19T11:22:47;13.50;;;9.13;;
68212;SDS011;55035;47.792;8.724;2023-10-19T11:25:19;13.15;;;9.00;;
68212;SDS011;55035;47.792;8.724;2023-10-19T11:27:49;13.30;;;8.80;;
68212;SDS011;55035;47.792;8.724;2023-10-19T11:30:24;12.57;;;8.10;;
68212;SDS011;55035;47.792;8.724;2023-10-19T11:32:51;12.00;;;8.07;;
68212;SDS011;55035;47.792;8.724;2023-10-19T11:35:23;10.85;;;7.30;;
68212;SDS011;55035;47.792;8.724;2023-10-19T11:37:50;11.55;;;7.63;;
68212;SDS011;55035;47.792;8.724;2023-10-19T11:40:18;11.60;;;7.88;;
68212;SDS011;55035;47.792;8.724;2023-10-19T11:42:46;12.67;;;8.30;;
68212;SDS011;55035;47.792;8.724;2023-10-19T11:45:15;14.75;;;9.60;;
68212;SDS011;55035;47.792;8.724;2023-10-19T11:47:43;15.07;;;10.70;;
68212;SDS011;55035;47.792;8.724;2023-10-19T11:50:10;19.17;;;12.27;;
68212;SDS011;55035;47.792;8.724;2023-10-19T11:52:41;19.40;;;13.00;;
68212;SDS011;55035;47.792;8.724;2023-10-19T11:55:08;20.98;;;14.00;;
68212;SDS011;55035;47.792;8.724;2023-10-19T11:57:35;23.92;;;15.40;;
68212;SDS011;55035;47.792;8.724;2023-10-19T12:00:02;25.92;;;15.88;;
68212;SDS011;55035;47.792;8.724;2023-10-19T12:02:35;25.97;;;17.00;;
68212;SDS011;55035;47.792;8.724;2023-10-19T12:05:04;26.97;;;17.57;;
68212;SDS011;55035;47.792;8.724;2023-10-19T12:07:35;27.80;;;17.77;;
68212;SDS011;55035;47.792;8.724;2023-10-19T12:10:04;29.20;;;18.10;;
68212;SDS011;55035;47.792;8.724;2023-10-19T12:12:31;29.25;;;17.92;;
68212;SDS011;55035;47.792;8.724;2023-10-19T12:14:58;30.08;;;18.85;;
68212;SDS011;55035;47.792;8.724;2023-10-19T12:17:24;28.48;;;17.95;;
68212;SDS011;55035;47.792;8.724;2023-10-19T12:19:54;27.55;;;17.25;;
68212;SDS011;55035;47.792;8.724;2023-10-19T12:22:21;27.88;;;17.98;;
68212;SDS011;55035;47.792;8.724;2023-10-19T12:24:49;29.38;;;17.92;;
68212;SDS011;55035;47.792;8.724;2023-10-19T12:27:17;26.77;;;16.80;;
68212;SDS011;55035;47.792;8.724;2023-10-19T12:29:44;26.80;;;16.67;;
68212;SDS011;55035;47.792;8.724;2023-10-19T12:32:11;26.63;;;16.60;;
68212;SDS011;55035;47.792;8.724;2023-10-19T12:34:40;25.47;;;16.70;;
68212;SDS011;55035;47.792;8.724;2023-10-19T12:37:08;27.58;;;17.30;;
68212;SDS011;55035;47.792;8.724;2023-10-19T12:39:36;28.08;;;16.73;;
68212;SDS011;55035;47.792;8.724;2023-10-19T12:42:09;27.45;;;16.80;;
68212;SDS011;55035;47.792;8.724;2023-10-19T12:44:36;28.27;;;17.77;;
68212;SDS011;55035;47.792;8.724;2023-10-19T12:47:07;29.33;;;17.88;;
68212;SDS011;55035;47.792;8.724;2023-10-19T12:49:36;30.02;;;18.35;;
68212;SDS011;55035;47.792;8.724;2023-10-19T12:52:03;30.10;;;18.75;;
68212;SDS011;55035;47.792;8.724;2023-10-19T12:54:31;32.72;;;19.42;;
68212;SDS011;55035;47.792;8.724;2023-10-19T12:56:58;32.35;;;19.08;;
68212;SDS011;55035;47.792;8.724;2023-10-19T12:59:26;31.67;;;19.25;;
68212;SDS011;55035;47.792;8.724;2023-10-19T13:01:53;32.70;;;19.17;;
68212;SDS011;55035;47.792;8.724;2023-10-19T13:04:23;31.70;;;18.27;;
68212;SDS011;55035;47.792;8.724;2023-10-19T13:06:50;30.50;;;18.42;;
68212;SDS011;55035;47.792;8.724;2023-10-19T13:09:17;28.65;;;17.88;;
68212;SDS011;55035;47.792;8.724;2023-10-19T13:11:52;28.70;;;16.95;;
68212;SDS011;55035;47.792;8.724;2023-10-19T13:14:19;27.70;;;17.27;;
68212;SDS011;55035;47.792;8.724;2023-10-19T13:16:46;26.83;;;16.50;;
68212;SDS011;55035;47.792;8.724;2023-10-19T13:19:15;25.70;;;15.48;;
68212;SDS011;55035;47.792;8.724;2023-10-19T13:21:46;24.52;;;15.00;;
68212;SDS011;55035;47.792;8.724;2023-10-19T13:24:14;24.13;;;14.40;;
68212;SDS011;55035;47.792;8.724;2023-10-19T13:26:42;22.25;;;14.20;;
68212;SDS011;55035;47.792;8.724;2023-10-19T13:29:13;23.90;;;15.18;;
68212;SDS011;55035;47.792;8.724;2023-10-19T13:31:41;25.65;;;16.27;;
68212;SDS011;55035;47.792;8.724;2023-10-19T13:34:14;24.08;;;15.48;;
68212;SDS011;55035;47.792;8.724;2023-10-19T13:36:41;26.95;;;15.50;;
68212;SDS011;55035;47.792;8.724;2023-10-19T13:39:10;22.97;;;14.83;;
68212;SDS011;55035;47.792;8.724;2023-10-19T13:41:42;23.42;;;15.05;;
68212;SDS011;55035;47.792;8.724;2023-10-19T13:44:09;22.80;;;14.48;;
68212;SDS011;55035;47.792;8.724;2023-10-19T13:46:38;22.67;;;14.55;;
68212;SDS011;55035;47.792;8.724;2023-10-19T13:49:05;24.15;;;14.98;;
68212;SDS011;55035;47.792;8.724;2023-10-19T13:51:35;24.15;;;14.98;;
68212;SDS011;55035;47.792;8.724;2023-10-19T13:54:02;23.33;;;14.30;;
68212;SDS011;55035;47.792;8.724;2023-10-19T13:56:29;21.70;;;13.93;;
68212;SDS011;55035;47.792;8.724;2023-10-19T13:58:55;20.70;;;13.47;;
68212;SDS011;55035;47.792;8.724;2023-10-19T14:01:22;19.83;;;12.90;;
68212;SDS011;55035;47.792;8.724;2023-10-19T14:03:52;19.55;;;12.40;;
68212;SDS011;55035;47.792;8.724;2023-10-19T14:06:21;19.73;;;12.70;;
68212;SDS011;55035;47.792;8.724;2023-10-19T14:08:49;20.35;;;12.55;;
68212;SDS011;55035;47.792;8.724;2023-10-19T14:11:17;19.08;;;11.73;;
68212;SDS011;55035;47.792;8.724;2023-10-19T14:13:45;20.08;;;13.02;;
68212;SDS011;55035;47.792;8.724;2023-10-19T14:16:12;19.05;;;12.70;;
68212;SDS011;55035;47.792;8.724;2023-10-19T14:18:39;20.85;;;13.80;;
68212;SDS011;55035;47.792;8.724;2023-10-19T14:21:13;20.90;;;13.70;;
68212;SDS011;55035;47.792;8.724;2023-10-19T14:23:40;22.60;;;14.60;;
68212;SDS011;55035;47.792;8.724;2023-10-19T14:26:08;22.35;;;14.85;;
68212;SDS011;55035;47.792;8.724;2023-10-19T14:28:35;22.83;;;14.50;;
68212;SDS011;55035;47.792;8.724;2023-10-19T14:31:02;25.38;;;15.57;;
68212;SDS011;55035;47.792;8.724;2023-10-19T14:33:30;25.23;;;15.27;;
68212;SDS011;55035;47.792;8.724;2023-10-19T14:35:57;24.25;;;15.00;;
68212;SDS011;55035;47.792;8.724;2023-10-19T14:38:25;26.17;;;16.10;;